Time;durP1;ratioP1;P1;durP2;ratioP2;P2;SDS_P1;SDS_P2;PMS_P1;PMS_P2;Temp;Humidity;BMP_temperature;BMP_pressure;BME280_temperature;BME280_humidity;BME280_pressure;Samples;Min_cycle;Max_cycle;Signal;HPM_P1;HPM_P2
2022/06/03 00:00:09;;;;;;;4.35;3.95;;;;;;;;;;2093581;28;20021;-74
2022/06/03 00:01:28;;;;;;;4.32;3.78;;;;;;;;;;2094688;28;20025;-74
2022/06/03 00:02:47;;;;;;;3.92;3.63;;;;;;;;;;2095371;28;20016;-73
2022/06/03 00:04:25;;;;;;;3.97;3.63;;;;;;;;;;2097760;28;20029;-74
2022/06/03 00:05:58;;;;;;;3.90;3.60;;;;;;;;;;2091587;28;20382;-72
2022/06/03 00:07:35;;;;;;;10.68;3.97;;;;;;;;;;2096641;28;20032;-74
2022/06/03 00:08:54;;;;;;;4.13;3.28;;;;;;;;;;2096857;28;20028;-73
2022/06/03 00:10:22;;;;;;;4.28;3.97;;;;;;;;;;2094456;28;20028;-73
2022/06/03 00:11:58;;;;;;;4.30;3.92;;;;;;;;;;2097554;28;20040;-72
2022/06/03 00:13:29;;;;;;;4.47;3.50;;;;;;;;;;2096072;28;20020;-72
2022/06/03 00:14:56;;;;;;;7.97;4.15;;;;;;;;;;2097373;28;20459;-74
2022/06/03 00:16:29;;;;;;;3.72;3.42;;;;;;;;;;2096281;28;20466;-73
2022/06/03 00:18:09;;;;;;;3.45;3.25;;;;;;;;;;2092013;28;20036;-73
2022/06/03 00:19:48;;;;;;;4.47;3.88;;;;;;;;;;2091477;28;20056;-73
2022/06/03 00:21:13;;;;;;;7.75;3.63;;;;;;;;;;2096009;28;20044;-74
2022/06/03 00:22:52;;;;;;;5.72;3.72;;;;;;;;;;2094586;28;20486;-73
2022/06/03 00:24:10;;;;;;;3.30;3.10;;;;;;;;;;2099952;28;20024;-73
2022/06/03 00:25:45;;;;;;;3.95;3.53;;;;;;;;;;2096854;28;20020;-72
2022/06/03 00:27:13;;;;;;;3.33;3.03;;;;;;;;;;2096093;28;20029;-73
2022/06/03 00:28:43;;;;;;;3.97;3.28;;;;;;;;;;2095084;28;20036;-73
2022/06/03 00:30:20;;;;;;;3.67;3.38;;;;;;;;;;2093962;28;20028;-71
2022/06/03 00:32:02;;;;;;;5.03;3.30;;;;;;;;;;2094673;28;20036;-72
2022/06/03 00:33:39;;;;;;;3.40;3.10;;;;;;;;;;2094900;28;20029;-73
2022/06/03 00:35:21;;;;;;;3.47;3.17;;;;;;;;;;2091886;28;20033;-73
2022/06/03 00:37:03;;;;;;;3.92;3.33;;;;;;;;;;2094109;28;20491;-73
2022/06/03 00:38:25;;;;;;;3.25;3.05;;;;;;;;;;2096783;28;20036;-73
2022/06/03 00:39:59;;;;;;;3.58;3.28;;;;;;;;;;2096851;28;20044;-73
2022/06/03 00:41:18;;;;;;;;;;;;;;;;;;2093611;28;20506;-72
2022/06/03 00:42:49;;;;;;;3.70;3.10;;;;;;;;;;2097496;28;19913;-72
2022/06/03 00:44:18;;;;;;;3.63;3.33;;;;;;;;;;2096475;28;20115;-73
2022/06/03 00:45:46;;;;;;;4.53;3.47;;;;;;;;;;2091122;28;20470;-69
2022/06/03 00:47:21;;;;;;;2.97;2.75;;;;;;;;;;2094247;28;20445;-72
2022/06/03 00:48:46;;;;;;;2.85;2.55;;;;;;;;;;2102208;28;20016;-68
2022/06/03 00:50:08;;;;;;;2.58;2.38;;;;;;;;;;2098244;28;20453;-73
2022/06/03 00:51:45;;;;;;;2.83;2.63;;;;;;;;;;2095944;28;20025;-72
2022/06/03 00:53:23;;;;;;;3.08;2.88;;;;;;;;;;2094475;28;20475;-73
2022/06/03 00:54:50;;;;;;;3.10;2.90;;;;;;;;;;2096788;28;20036;-72
2022/06/03 00:56:12;;;;;;;4.53;3.05;;;;;;;;;;2094561;28;20032;-71
2022/06/03 00:57:42;;;;;;;4.38;2.58;;;;;;;;;;2096180;28;20394;-73
2022/06/03 00:59:04;;;;;;;3.28;3.05;;;;;;;;;;2096285;28;20486;-73
2022/06/03 01:00:24;;;;;;;4.07;2.95;;;;;;;;;;2094304;28;20075;-73
2022/06/03 01:01:49;;;;;;;4.38;3.00;;;;;;;;;;2095930;28;20498;-73
2022/06/03 01:03:08;;;;;;;3.85;3.03;;;;;;;;;;2093789;28;20037;-73
2022/06/03 01:04:45;;;;;;;4.63;2.85;;;;;;;;;;2091675;28;20032;-73
2022/06/03 01:06:10;;;;;;;3.47;2.83;;;;;;;;;;2089655;28;20022;-73
2022/06/03 01:07:37;;;;;;;3.97;2.75;;;;;;;;;;2092683;28;20092;-73
2022/06/03 01:08:59;;;;;;;3.78;2.75;;;;;;;;;;2095732;28;20017;-73
2022/06/03 01:10:34;;;;;;;2.97;2.75;;;;;;;;;;2094396;28;20466;-73
2022/06/03 01:12:03;;;;;;;2.92;2.65;;;;;;;;;;2083061;28;20132;-73
2022/06/03 01:13:22;;;;;;;2.70;2.50;;;;;;;;;;2093020;28;20036;-73
2022/06/03 01:14:48;;;;;;;3.63;3.03;;;;;;;;;;2091103;28;20033;-73
2022/06/03 01:16:17;;;;;;;3.03;2.75;;;;;;;;;;2094820;28;20040;-72
2022/06/03 01:18:02;;;;;;;2.65;2.25;;;;;;;;;;2096512;28;20029;-73
2022/06/03 01:19:27;;;;;;;3.28;3.00;;;;;;;;;;2095376;28;20402;-73
2022/06/03 01:21:05;;;;;;;2.50;2.40;;;;;;;;;;2096988;28;20036;-72
2022/06/03 01:22:45;;;;;;;3.03;2.67;;;;;;;;;;2095080;28;20056;-73
2022/06/03 01:24:13;;;;;;;4.38;3.08;;;;;;;;;;2090013;28;21300;-73
2022/06/03 01:25:44;;;;;;;4.63;2.58;;;;;;;;;;2096463;28;20024;-73
2022/06/03 01:27:03;;;;;;;3.00;2.80;;;;;;;;;;2094272;28;20041;-72
2022/06/03 01:28:36;;;;;;;3.05;2.85;;;;;;;;;;2094704;28;20024;-72
2022/06/03 01:29:55;;;;;;;3.13;2.70;;;;;;;;;;2095120;28;20033;-71
2022/06/03 01:31:14;;;;;;;3.28;2.72;;;;;;;;;;2094548;28;20237;-73
2022/06/03 01:32:53;;;;;;;3.33;2.95;;;;;;;;;;2096163;28;20059;-73
2022/06/03 01:34:31;;;;;;;2.92;2.72;;;;;;;;;;2093541;28;20025;-73
2022/06/03 01:36:09;;;;;;;3.03;2.83;;;;;;;;;;2095600;28;20020;-72
2022/06/03 01:37:33;;;;;;;2.78;2.58;;;;;;;;;;2094331;28;20067;-72
2022/06/03 01:38:55;;;;;;;3.08;2.88;;;;;;;;;;2100414;28;20041;-73
2022/06/03 01:40:26;;;;;;;4.88;3.13;;;;;;;;;;2093673;28;20749;-73
2022/06/03 01:42:04;;;;;;;3.13;2.90;;;;;;;;;;2093555;28;20044;-72
2022/06/03 01:43:35;;;;;;;3.70;3.05;;;;;;;;;;2096040;28;20020;-72
2022/06/03 01:45:06;;;;;;;3.47;3.20;;;;;;;;;;2093849;28;20112;-73
2022/06/03 01:46:29;;;;;;;5.25;2.90;;;;;;;;;;2091246;28;20140;-72
2022/06/03 01:47:56;;;;;;;3.33;3.10;;;;;;;;;;2095457;28;20107;-73
2022/06/03 01:49:28;;;;;;;3.65;2.70;;;;;;;;;;2094557;28;20455;-73
2022/06/03 01:50:52;;;;;;;3.30;3.10;;;;;;;;;;2092708;28;20572;-73
2022/06/03 01:52:40;;;;;;;3.67;3.33;;;;;;;;;;2093354;28;20261;-73
2022/06/03 01:54:08;;;;;;;4.80;3.70;;;;;;;;;;2065438;28;20121;-73
2022/06/03 01:55:45;;;;;;;4.28;3.88;;;;;;;;;;2073718;28;20028;-73
2022/06/03 01:57:23;;;;;;;3.17;2.97;;;;;;;;;;2092528;28;20041;-73
2022/06/03 01:58:55;;;;;;;3.85;3.53;;;;;;;;;;2095935;28;20482;-72
2022/06/03 02:00:29;;;;;;;4.20;3.65;;;;;;;;;;2085922;28;20036;-73
2022/06/03 02:02:06;;;;;;;4.90;3.42;;;;;;;;;;2093787;28;20423;-73
2022/06/03 02:03:38;;;;;;;3.60;3.28;;;;;;;;;;2096609;28;20505;-73
2022/06/03 02:05:15;;;;;;;4.05;3.72;;;;;;;;;;2094402;28;20127;-72
2022/06/03 02:06:52;;;;;;;3.85;3.65;;;;;;;;;;2095071;28;20072;-72
2022/06/03 02:08:30;;;;;;;4.85;3.38;;;;;;;;;;2095861;28;20064;-71
2022/06/03 02:10:02;;;;;;;4.57;3.92;;;;;;;;;;2096947;28;20032;-73
2022/06/03 02:11:39;;;;;;;4.00;3.70;;;;;;;;;;2093980;28;20029;-71
2022/06/03 02:13:04;;;;;;;6.47;4.20;;;;;;;;;;2093889;28;20044;-72
2022/06/03 02:14:26;;;;;;;4.43;4.10;;;;;;;;;;2096784;28;20028;-73
2022/06/03 02:15:48;;;;;;;5.28;3.65;;;;;;;;;;2092376;28;20029;-72
2022/06/03 02:17:25;;;;;;;5.45;3.80;;;;;;;;;;2093181;28;20033;-72
2022/06/03 02:18:50;;;;;;;4.53;4.13;;;;;;;;;;2096695;28;20041;-71
2022/06/03 02:20:19;;;;;;;4.53;4.18;;;;;;;;;;2094412;28;20044;-71
2022/06/03 02:21:47;;;;;;;4.70;4.30;;;;;;;;;;2094681;28;20033;-71
2022/06/03 02:23:15;;;;;;;7.28;3.92;;;;;;;;;;2093138;28;20020;-67
2022/06/03 02:24:55;;;;;;;4.80;4.40;;;;;;;;;;2096665;28;20117;-71
2022/06/03 02:26:25;;;;;;;4.82;4.43;;;;;;;;;;2095269;28;20033;-71
2022/06/03 02:27:54;;;;;;;4.90;4.50;;;;;;;;;;2094068;28;20028;-71
2022/06/03 02:31:14;;;;;;;5.05;4.47;;;;;;;;;;2095267;28;20045;-71
2022/06/03 02:32:42;;;;;;;5.15;4.75;;;;;;;;;;2095881;28;20490;-71
2022/06/03 02:34:04;;;;;;;5.03;4.63;;;;;;;;;;2092132;28;20041;-71
2022/06/03 02:35:36;;;;;;;6.85;4.40;;;;;;;;;;2092152;28;20036;-71
2022/06/03 02:36:55;;;;;;;7.93;4.65;;;;;;;;;;2093940;28;20028;-70
2022/06/03 02:38:20;;;;;;;8.73;5.38;;;;;;;;;;2092837;28;20036;-71
2022/06/03 02:39:42;;;;;;;5.68;5.18;;;;;;;;;;2097493;28;20114;-71
2022/06/03 02:41:12;;;;;;;8.65;4.80;;;;;;;;;;2095667;28;20502;-71
2022/06/03 02:42:53;;;;;;;5.97;4.68;;;;;;;;;;2095761;28;20037;-71
2022/06/03 02:44:15;;;;;;;7.68;5.57;;;;;;;;;;2094900;28;20593;-71
2022/06/03 02:45:48;;;;;;;7.45;5.07;;;;;;;;;;2091799;28;20029;-69
2022/06/03 02:47:13;;;;;;;7.75;5.20;;;;;;;;;;2095853;28;20017;-70
2022/06/03 02:48:40;;;;;;;6.20;5.60;;;;;;;;;;2094156;28;20025;-70
2022/06/03 02:50:09;;;;;;;7.38;5.55;;;;;;;;;;2094847;28;20403;-70
2022/06/03 02:51:41;;;;;;;5.28;4.72;;;;;;;;;;2095453;28;20401;-71
2022/06/03 02:53:07;;;;;;;8.45;6.10;;;;;;;;;;2094295;28;20152;-71
2022/06/03 02:54:49;;;;;;;7.18;5.30;;;;;;;;;;2094243;28;20115;-71
2022/06/03 02:56:15;;;;;;;5.32;4.88;;;;;;;;;;2094970;28;20041;-70
2022/06/03 02:57:43;;;;;;;5.78;5.18;;;;;;;;;;2094613;28;20390;-70
2022/06/03 02:59:14;;;;;;;7.18;5.68;;;;;;;;;;2096281;28;20108;-71
2022/06/03 03:00:46;;;;;;;5.95;5.40;;;;;;;;;;2091578;28;20486;-66
2022/06/03 03:02:08;;;;;;;8.55;5.28;;;;;;;;;;2093817;28;20533;-71
2022/06/03 03:03:38;;;;;;;5.97;5.47;;;;;;;;;;2090558;28;20025;-71
2022/06/03 03:05:03;;;;;;;9.20;5.95;;;;;;;;;;2094170;28;20029;-71
2022/06/03 03:06:30;;;;;;;6.45;5.50;;;;;;;;;;2096551;28;21504;-73
2022/06/03 03:07:57;;;;;;;6.68;6.07;;;;;;;;;;2096369;28;20060;-70
2022/06/03 03:09:34;;;;;;;5.70;5.20;;;;;;;;;;2096103;28;20021;-70
2022/06/03 03:11:12;;;;;;;7.03;5.85;;;;;;;;;;2094387;28;20033;-71
2022/06/03 03:12:40;;;;;;;8.68;6.53;;;;;;;;;;2095077;28;20029;-71
2022/06/03 03:14:28;;;;;;;6.03;5.63;;;;;;;;;;2092165;28;20024;-72
2022/06/03 03:16:10;;;;;;;7.65;5.97;;;;;;;;;;2074903;28;20064;-72
2022/06/03 03:17:47;;;;;;;6.82;5.95;;;;;;;;;;2093883;28;20064;-71
2022/06/03 03:19:11;;;;;;;7.80;5.88;;;;;;;;;;2094455;28;20032;-71
2022/06/03 03:20:39;;;;;;;6.38;5.75;;;;;;;;;;2092838;28;20121;-72
2022/06/03 03:22:17;;;;;;;6.03;5.53;;;;;;;;;;2095409;28;20040;-72
2022/06/03 03:23:46;;;;;;;8.48;5.70;;;;;;;;;;2090057;28;20510;-69
2022/06/03 03:25:13;;;;;;;6.72;6.15;;;;;;;;;;2092228;28;20096;-72
2022/06/03 03:26:42;;;;;;;6.72;5.70;;;;;;;;;;2095625;28;20037;-71
2022/06/03 03:28:07;;;;;;;7.93;6.13;;;;;;;;;;2095749;28;20055;-73
2022/06/03 03:29:38;;;;;;;7.07;5.32;;;;;;;;;;2096499;28;20036;-72
2022/06/03 03:31:02;;;;;;;6.70;6.10;;;;;;;;;;2093225;28;20025;-73
2022/06/03 03:32:43;;;;;;;11.50;5.45;;;;;;;;;;2096367;28;20032;-69
2022/06/03 03:34:08;;;;;;;8.18;5.78;;;;;;;;;;2092075;28;20029;-72
2022/06/03 03:35:45;;;;;;;6.22;5.72;;;;;;;;;;2095581;28;20033;-73
2022/06/03 03:37:20;;;;;;;6.60;5.55;;;;;;;;;;2094942;28;20052;-72
2022/06/03 03:38:48;;;;;;;7.25;6.30;;;;;;;;;;2093737;28;20025;-73
2022/06/03 03:40:07;;;;;;;10.43;5.55;;;;;;;;;;2096018;28;20041;-72
2022/06/03 03:41:38;;;;;;;6.40;5.90;;;;;;;;;;2096471;28;20033;-73
2022/06/03 03:43:29;;;;;;;9.25;6.53;;;;;;;;;;2089991;28;20041;-71
2022/06/03 03:45:08;;;;;;;6.80;5.78;;;;;;;;;;2095590;28;20033;-72
2022/06/03 03:46:39;;;;;;;9.68;5.85;;;;;;;;;;2097204;28;20441;-72
2022/06/03 03:48:15;;;;;;;7.22;6.07;;;;;;;;;;2095879;28;20103;-72
2022/06/03 03:50:04;;;;;;;8.88;5.75;;;;;;;;;;2093798;28;20036;-72
2022/06/03 03:51:38;;;;;;;7.45;6.35;;;;;;;;;;2089423;28;20058;-73
2022/06/03 03:53:16;;;;;;;6.60;6.05;;;;;;;;;;2094418;28;20032;-73
2022/06/03 03:54:35;;;;;;;6.75;6.07;;;;;;;;;;2093994;28;20044;-72
2022/06/03 03:55:54;;;;;;;8.55;6.20;;;;;;;;;;2096610;28;20032;-72
2022/06/03 03:57:39;;;;;;;7.55;5.65;;;;;;;;;;2097141;28;20025;-72
2022/06/03 03:59:17;;;;;;;9.20;6.32;;;;;;;;;;2094474;28;20041;-72
2022/06/03 04:00:55;;;;;;;6.82;6.13;;;;;;;;;;2094941;28;20514;-72
2022/06/03 04:02:17;;;;;;;8.32;6.50;;;;;;;;;;2094510;28;20032;-72
2022/06/03 04:03:55;;;;;;;11.85;6.68;;;;;;;;;;2095509;28;20425;-72
2022/06/03 04:05:14;;;;;;;7.55;6.32;;;;;;;;;;2095707;28;20036;-72
2022/06/03 04:06:39;;;;;;;7.32;6.25;;;;;;;;;;2097210;28;20040;-71
2022/06/03 04:08:07;;;;;;;7.70;6.50;;;;;;;;;;2096656;28;20028;-72
2022/06/03 04:09:45;;;;;;;6.70;6.03;;;;;;;;;;2095715;28;20033;-72
2022/06/03 04:11:16;;;;;;;8.43;6.22;;;;;;;;;;2104522;28;20036;-72
2022/06/03 04:12:51;;;;;;;9.52;6.40;;;;;;;;;;2096438;28;20032;-71
2022/06/03 04:14:39;;;;;;;8.95;6.72;;;;;;;;;;2092503;28;20037;-69
2022/06/03 04:16:17;;;;;;;8.88;7.07;;;;;;;;;;2076649;28;20042;-72
2022/06/03 04:17:54;;;;;;;9.65;6.80;;;;;;;;;;2096337;28;20028;-72
2022/06/03 04:19:12;;;;;;;11.98;7.47;;;;;;;;;;2095558;28;20506;-71
2022/06/03 04:20:50;;;;;;;13.80;7.18;;;;;;;;;;2095233;28;20067;-71
2022/06/03 04:22:09;;;;;;;11.40;7.40;;;;;;;;;;2094701;28;20028;-71
2022/06/03 04:23:56;;;;;;;8.98;6.63;;;;;;;;;;2093099;28;20041;-70
2022/06/03 04:25:34;;;;;;;9.63;6.85;;;;;;;;;;2094031;28;20028;-70
2022/06/03 04:27:12;;;;;;;7.00;6.40;;;;;;;;;;2094727;28;20055;-69
2022/06/03 04:28:53;;;;;;;7.43;6.72;;;;;;;;;;2091311;28;20020;-69
2022/06/03 04:30:31;;;;;;;12.90;7.05;;;;;;;;;;2090971;28;20025;-68
2022/06/03 04:32:10;;;;;;;7.30;6.60;;;;;;;;;;2093700;28;20025;-69
2022/06/03 04:33:29;;;;;;;7.97;7.18;;;;;;;;;;2094451;28;20036;-70
2022/06/03 04:35:17;;;;;;;9.15;7.10;;;;;;;;;;2089984;28;20044;-68
2022/06/03 04:36:55;;;;;;;10.82;6.68;;;;;;;;;;2095227;28;20522;-70
2022/06/03 04:38:27;;;;;;;9.18;6.90;;;;;;;;;;2091988;28;20036;-70
2022/06/03 04:39:56;;;;;;;7.43;6.68;;;;;;;;;;2089508;28;20522;-69
2022/06/03 04:41:33;;;;;;;10.57;6.97;;;;;;;;;;2094076;28;20436;-70
2022/06/03 04:43:11;;;;;;;8.20;6.65;;;;;;;;;;2096788;28;20037;-68
2022/06/03 04:44:49;;;;;;;12.68;6.78;;;;;;;;;;2095765;28;20041;-70
2022/06/03 04:46:30;;;;;;;7.80;7.00;;;;;;;;;;2092655;28;20040;-68
2022/06/03 04:48:08;;;;;;;11.35;7.28;;;;;;;;;;2095180;28;20037;-68
2022/06/03 04:49:39;;;;;;;8.23;7.00;;;;;;;;;;2091171;28;20029;-69
2022/06/03 04:51:17;;;;;;;11.70;7.50;;;;;;;;;;2095289;28;20032;-69
2022/06/03 04:52:54;;;;;;;11.23;7.95;;;;;;;;;;2095817;28;20060;-69
2022/06/03 04:54:13;;;;;;;9.23;8.00;;;;;;;;;;2093010;28;20025;-69
2022/06/03 04:55:32;;;;;;;13.27;7.57;;;;;;;;;;2090099;28;20026;-69
2022/06/03 04:56:55;;;;;;;10.55;6.88;;;;;;;;;;2094233;28;20020;-69
2022/06/03 04:58:32;;;;;;;7.45;6.70;;;;;;;;;;2094256;28;20028;-69
2022/06/03 05:00:10;;;;;;;7.97;7.15;;;;;;;;;;2090209;28;20099;-68
2022/06/03 05:01:49;;;;;;;9.55;7.78;;;;;;;;;;2094720;28;20058;-69
2022/06/03 05:03:35;;;;;;;9.00;7.35;;;;;;;;;;2095260;28;20063;-68
2022/06/03 05:05:03;;;;;;;10.30;7.57;;;;;;;;;;2095727;28;20478;-68
2022/06/03 05:06:41;;;;;;;8.80;7.30;;;;;;;;;;2095963;28;20033;-69
2022/06/03 05:08:09;;;;;;;8.02;7.20;;;;;;;;;;2096917;28;20029;-70
2022/06/03 05:09:47;;;;;;;8.70;7.15;;;;;;;;;;2095729;28;20029;-68
2022/06/03 05:11:06;;;;;;;9.00;7.82;;;;;;;;;;2096561;28;20033;-69
2022/06/03 05:12:28;;;;;;;10.55;7.30;;;;;;;;;;2097038;28;20099;-69
2022/06/03 05:13:56;;;;;;;11.25;7.35;;;;;;;;;;2095366;28;20020;-68
2022/06/03 05:15:21;;;;;;;9.50;7.93;;;;;;;;;;2093847;28;20037;-68
2022/06/03 05:16:56;;;;;;;19.17;8.13;;;;;;;;;;2092178;28;20490;-68
2022/06/03 05:18:40;;;;;;;16.10;7.15;;;;;;;;;;2094861;28;20028;-69
2022/06/03 05:20:02;;;;;;;11.27;7.72;;;;;;;;;;2091491;28;20049;-68
2022/06/03 05:21:24;;;;;;;15.77;8.40;;;;;;;;;;2093475;28;20032;-69
2022/06/03 05:23:02;;;;;;;8.73;7.72;;;;;;;;;;2095411;28;20056;-68
2022/06/03 05:24:24;;;;;;;14.73;8.02;;;;;;;;;;2096938;28;20107;-69
2022/06/03 05:25:59;;;;;;;13.43;8.40;;;;;;;;;;2094254;28;20107;-69
2022/06/03 05:27:37;;;;;;;9.30;8.15;;;;;;;;;;2095859;28;20036;-69
2022/06/03 05:29:13;;;;;;;8.95;7.93;;;;;;;;;;2094329;28;20041;-69
2022/06/03 05:30:52;;;;;;;14.65;8.52;;;;;;;;;;2091837;28;20100;-69
2022/06/03 05:32:30;;;;;;;10.13;7.35;;;;;;;;;;2095812;28;20036;-72
2022/06/03 05:34:04;;;;;;;8.52;7.70;;;;;;;;;;2092201;28;20029;-71
2022/06/03 05:35:26;;;;;;;13.00;7.63;;;;;;;;;;2090892;28;20482;-69
2022/06/03 05:36:56;;;;;;;11.93;7.38;;;;;;;;;;2092660;28;20068;-69
2022/06/03 05:38:35;;;;;;;9.43;7.55;;;;;;;;;;2094208;28;20029;-69
2022/06/03 05:40:09;;;;;;;10.07;7.15;;;;;;;;;;2072457;28;20058;-69
2022/06/03 05:43:43;;;;;;;13.20;9.35;;;;;;;;;;2095764;28;20020;-69
2022/06/03 05:45:20;;;;;;;12.10;8.10;;;;;;;;;;2095218;28;20036;-70
2022/06/03 05:47:02;;;;;;;9.95;7.07;;;;;;;;;;2091599;28;20037;-71
2022/06/03 05:48:21;;;;;;;14.02;8.05;;;;;;;;;;2094830;28;20100;-71
2022/06/03 05:49:46;;;;;;;8.93;7.40;;;;;;;;;;2094111;28;20021;-71
2022/06/03 05:51:24;;;;;;;13.38;8.32;;;;;;;;;;2093974;28;20119;-70
2022/06/03 05:52:43;;;;;;;10.55;7.80;;;;;;;;;;2094645;28;20111;-71
2022/06/03 05:54:22;;;;;;;9.20;7.07;;;;;;;;;;2095966;28;20028;-71
2022/06/03 05:55:43;;;;;;;13.48;8.23;;;;;;;;;;2062225;28;20401;-69
2022/06/03 05:57:03;;;;;;;8.48;7.18;;;;;;;;;;2094226;28;20028;-70
2022/06/03 05:58:40;;;;;;;11.98;8.00;;;;;;;;;;2094282;28;20032;-69
2022/06/03 06:00:18;;;;;;;9.20;7.50;;;;;;;;;;2095138;28;20095;-69
2022/06/03 06:01:46;;;;;;;10.45;7.93;;;;;;;;;;2093869;28;20074;-69
2022/06/03 06:03:11;;;;;;;9.85;7.13;;;;;;;;;;2095764;28;20060;-68
2022/06/03 06:04:33;;;;;;;15.60;7.78;;;;;;;;;;2095837;28;20462;-69
2022/06/03 06:06:10;;;;;;;10.63;7.90;;;;;;;;;;2095000;28;20021;-69
2022/06/03 06:07:41;;;;;;;9.63;7.32;;;;;;;;;;2095972;28;20040;-70
2022/06/03 06:09:06;;;;;;;11.35;7.72;;;;;;;;;;2095751;28;20443;-70
2022/06/03 06:10:40;;;;;;;8.82;7.60;;;;;;;;;;2096041;28;20402;-69
2022/06/03 06:12:20;;;;;;;8.68;7.22;;;;;;;;;;2095289;28;20040;-70
2022/06/03 06:13:39;;;;;;;9.73;7.57;;;;;;;;;;2091027;28;20032;-70
2022/06/03 06:15:11;;;;;;;11.43;7.68;;;;;;;;;;2092339;28;20037;-70
2022/06/03 06:16:32;;;;;;;8.45;7.25;;;;;;;;;;2094795;28;20417;-69
2022/06/03 06:18:00;;;;;;;10.27;7.70;;;;;;;;;;2095410;28;20111;-69
2022/06/03 06:19:36;;;;;;;8.30;7.10;;;;;;;;;;2095479;28;20044;-69
2022/06/03 06:21:05;;;;;;;8.85;7.95;;;;;;;;;;2096408;28;20101;-69
2022/06/03 06:22:30;;;;;;;11.40;7.82;;;;;;;;;;2103975;28;20036;-70
2022/06/03 06:24:09;;;;;;;8.27;7.47;;;;;;;;;;2096126;28;20024;-70
2022/06/03 06:25:37;;;;;;;8.82;7.47;;;;;;;;;;2095974;28;20381;-70
2022/06/03 06:27:05;;;;;;;14.80;8.45;;;;;;;;;;2099844;28;20040;-70
2022/06/03 06:28:24;;;;;;;9.45;7.72;;;;;;;;;;2096563;28;20398;-70
2022/06/03 06:29:43;;;;;;;13.20;8.15;;;;;;;;;;2095590;28;20032;-70
2022/06/03 06:31:11;;;;;;;9.35;7.75;;;;;;;;;;2096063;28;20150;-70
2022/06/03 06:32:39;;;;;;;10.82;8.50;;;;;;;;;;2094450;28;20063;-70
2022/06/03 06:34:14;;;;;;;8.95;8.05;;;;;;;;;;2093323;28;20025;-71
2022/06/03 06:35:52;;;;;;;11.68;7.80;;;;;;;;;;2093384;28;20024;-70
2022/06/03 06:37:29;;;;;;;10.73;8.00;;;;;;;;;;2093990;28;20028;-69
2022/06/03 06:39:06;;;;;;;9.68;8.13;;;;;;;;;;2095063;28;20123;-71
2022/06/03 06:40:41;;;;;;;11.57;7.18;;;;;;;;;;2095271;28;20119;-70
2022/06/03 06:42:09;;;;;;;10.70;6.93;;;;;;;;;;2093310;28;20040;-70
2022/06/03 06:43:34;;;;;;;8.40;7.53;;;;;;;;;;2095420;28;20052;-70
2022/06/03 06:45:05;;;;;;;8.75;7.70;;;;;;;;;;2095239;28;20021;-70
2022/06/03 06:46:38;;;;;;;7.88;7.07;;;;;;;;;;2096008;28;20040;-70
2022/06/03 06:48:11;;;;;;;12.52;7.68;;;;;;;;;;2095766;28;20029;-71
2022/06/03 06:49:34;;;;;;;12.07;7.70;;;;;;;;;;2096002;28;20460;-70
2022/06/03 06:51:11;;;;;;;8.73;7.82;;;;;;;;;;2094350;28;20792;-70
2022/06/03 06:52:48;;;;;;;9.52;7.90;;;;;;;;;;2094224;28;20029;-70
2022/06/03 06:54:21;;;;;;;11.70;7.78;;;;;;;;;;2094963;28;20028;-70
2022/06/03 06:55:41;;;;;;;9.90;7.95;;;;;;;;;;2094461;28;20032;-71
2022/06/03 06:57:06;;;;;;;14.10;7.60;;;;;;;;;;2093810;28;20033;-70
2022/06/03 06:58:29;;;;;;;9.52;7.53;;;;;;;;;;2096125;28;20048;-71
2022/06/03 07:00:09;;;;;;;11.73;8.27;;;;;;;;;;2096519;28;20040;-71
2022/06/03 07:01:33;;;;;;;14.38;8.13;;;;;;;;;;2090881;28;20037;-70
2022/06/03 07:02:58;;;;;;;10.90;7.50;;;;;;;;;;2094274;28;20116;-70
2022/06/03 07:04:22;;;;;;;9.45;7.47;;;;;;;;;;2095418;28;20387;-71
2022/06/03 07:05:50;;;;;;;9.35;6.97;;;;;;;;;;2095641;28;20506;-71
2022/06/03 07:07:15;;;;;;;12.10;7.00;;;;;;;;;;2092926;28;20415;-72
2022/06/03 07:08:44;;;;;;;7.93;7.05;;;;;;;;;;2095718;28;20032;-72
2022/06/03 07:10:24;;;;;;;9.68;7.65;;;;;;;;;;2093526;28;20040;-72
2022/06/03 07:11:43;;;;;;;8.27;7.43;;;;;;;;;;2094316;28;20021;-71
2022/06/03 07:13:21;;;;;;;10.60;7.82;;;;;;;;;;2095539;28;20029;-71
2022/06/03 07:14:54;;;;;;;10.25;6.90;;;;;;;;;;2097569;28;20025;-73
2022/06/03 07:19:47;;;;;;;7.45;6.60;;;;;;;;;;2098082;28;20735;-72
2022/06/03 07:19:52;;;;;;;9.32;7.00;;;;;;;;;;2096806;28;20048;-71
2022/06/03 07:21:16;;;;;;;8.18;6.82;;;;;;;;;;2097235;28;20040;-71
2022/06/03 07:22:47;;;;;;;9.15;7.47;;;;;;;;;;2095253;28;20032;-71
2022/06/03 07:24:14;;;;;;;9.88;6.53;;;;;;;;;;2097022;28;20056;-70
2022/06/03 07:25:44;;;;;;;7.95;7.15;;;;;;;;;;2097023;28;20064;-72
2022/06/03 07:27:09;;;;;;;7.38;6.72;;;;;;;;;;2097356;28;20375;-72
2022/06/03 07:28:28;;;;;;;8.50;6.95;;;;;;;;;;2098119;28;20382;-71
2022/06/03 07:29:51;;;;;;;8.65;7.40;;;;;;;;;;2097100;28;20028;-71
2022/06/03 07:31:29;;;;;;;7.28;6.57;;;;;;;;;;2097364;28;20029;-71
2022/06/03 07:33:04;;;;;;;9.85;6.80;;;;;;;;;;2094955;28;20020;-72
2022/06/03 07:34:31;;;;;;;8.25;6.72;;;;;;;;;;2097147;28;20028;-70
2022/06/03 07:35:56;;;;;;;10.75;7.07;;;;;;;;;;2096477;28;20024;-71
2022/06/03 07:37:18;;;;;;;7.30;6.65;;;;;;;;;;2092803;28;20049;-70
2022/06/03 07:38:40;;;;;;;7.68;6.95;;;;;;;;;;2096669;28;20060;-71
2022/06/03 07:40:17;;;;;;;10.02;6.65;;;;;;;;;;2094380;28;20041;-70
2022/06/03 07:41:52;;;;;;;7.13;6.43;;;;;;;;;;2096363;28;20068;-70
2022/06/03 07:43:17;;;;;;;7.38;6.63;;;;;;;;;;2096087;28;20021;-71
2022/06/03 07:44:46;;;;;;;7.05;6.45;;;;;;;;;;2095420;28;20028;-70
2022/06/03 07:46:05;;;;;;;8.02;6.10;;;;;;;;;;2097080;28;20033;-71
2022/06/03 07:47:25;;;;;;;9.68;6.30;;;;;;;;;;2095262;28;20024;-70
2022/06/03 07:48:45;;;;;;;9.38;6.45;;;;;;;;;;2096827;28;20510;-71
2022/06/03 07:50:06;;;;;;;6.65;6.05;;;;;;;;;;2097367;28;20068;-70
2022/06/03 07:51:36;;;;;;;7.10;6.30;;;;;;;;;;2097079;28;20064;-71
2022/06/03 07:52:59;;;;;;;6.85;6.25;;;;;;;;;;2094410;28;20028;-68
2022/06/03 07:54:25;;;;;;;7.20;6.47;;;;;;;;;;2097873;28;20053;-71
2022/06/03 07:55:50;;;;;;;6.40;5.80;;;;;;;;;;2095145;28;20024;-71
2022/06/03 07:57:17;;;;;;;6.47;5.75;;;;;;;;;;2096269;28;20041;-70
2022/06/03 07:58:38;;;;;;;5.95;5.50;;;;;;;;;;2101346;28;20060;-71
2022/06/03 07:59:59;;;;;;;7.05;5.38;;;;;;;;;;2098903;28;20040;-71
2022/06/03 08:01:28;;;;;;;6.88;6.10;;;;;;;;;;2097236;28;20037;-71
2022/06/03 08:02:59;;;;;;;6.53;5.43;;;;;;;;;;2096400;28;20028;-70
2022/06/03 08:04:25;;;;;;;6.68;5.55;;;;;;;;;;2096659;28;20128;-71
2022/06/03 08:05:45;;;;;;;6.00;5.40;;;;;;;;;;2097940;28;20024;-71
2022/06/03 08:12:05;;;;;;;8.02;5.63;;;;;;;;;;2096520;28;20033;-71
2022/06/03 08:13:25;;;;;;;6.25;5.63;;;;;;;;;;2094469;28;20033;-70
2022/06/03 08:14:44;;;;;;;6.32;5.75;;;;;;;;;;2100453;28;20483;-71
2022/06/03 08:16:05;;;;;;;5.72;5.25;;;;;;;;;;2099075;28;20028;-71
2022/06/03 08:17:25;;;;;;;6.10;5.70;;;;;;;;;;2097571;28;20081;-71
2022/06/03 08:18:44;;;;;;;6.00;5.60;;;;;;;;;;2095702;28;20024;-71
2022/06/03 08:20:03;;;;;;;5.93;5.40;;;;;;;;;;2093378;28;20457;-70
2022/06/03 08:21:44;;;;;;;8.52;5.78;;;;;;;;;;2095329;28;20028;-71
2022/06/03 08:23:04;;;;;;;6.53;5.88;;;;;;;;;;2096637;28;20025;-71
2022/06/03 08:24:24;;;;;;;6.80;6.22;;;;;;;;;;2097917;28;20036;-71
2022/06/03 08:25:44;;;;;;;7.53;5.95;;;;;;;;;;2095064;28;20029;-71
2022/06/03 08:27:05;;;;;;;8.32;5.93;;;;;;;;;;2096254;28;20028;-71
2022/06/03 08:28:25;;;;;;;6.75;6.10;;;;;;;;;;2095296;28;20092;-71
2022/06/03 08:29:47;;;;;;;6.22;5.72;;;;;;;;;;2096850;28;20482;-71
2022/06/03 08:31:06;;;;;;;9.82;6.22;;;;;;;;;;2097522;28;20052;-71
2022/06/03 08:32:37;;;;;;;10.45;6.18;;;;;;;;;;2096595;28;20028;-71
2022/06/03 08:34:00;;;;;;;6.15;5.55;;;;;;;;;;2095416;28;20028;-70
2022/06/03 08:35:21;;;;;;;6.65;6.07;;;;;;;;;;2096721;28;20460;-71
2022/06/03 08:36:40;;;;;;;5.95;5.35;;;;;;;;;;2101113;28;20111;-71
2022/06/03 08:38:02;;;;;;;5.97;5.57;;;;;;;;;;2097406;28;20017;-70
2022/06/03 08:39:23;;;;;;;6.25;5.38;;;;;;;;;;2100451;28;20028;-70
2022/06/03 08:40:57;;;;;;;7.95;5.97;;;;;;;;;;2098640;28;20519;-71
2022/06/03 08:42:16;;;;;;;9.23;6.55;;;;;;;;;;2095749;28;20032;-71
2022/06/03 08:43:40;;;;;;;8.63;5.40;;;;;;;;;;2092414;28;20037;-71
2022/06/03 08:45:17;;;;;;;8.55;5.68;;;;;;;;;;2097027;28;20045;-71
2022/06/03 08:46:51;;;;;;;6.07;5.47;;;;;;;;;;2096050;28;20450;-71
2022/06/03 08:48:15;;;;;;;5.93;5.43;;;;;;;;;;2095873;28;20032;-71
2022/06/03 08:49:54;;;;;;;7.22;5.68;;;;;;;;;;2096028;28;20025;-71
2022/06/03 08:51:32;;;;;;;6.47;5.88;;;;;;;;;;2097097;28;20025;-71
2022/06/03 08:52:54;;;;;;;6.80;6.00;;;;;;;;;;2096760;28;20029;-71
2022/06/03 08:54:16;;;;;;;6.53;5.93;;;;;;;;;;2095235;28;20032;-71
2022/06/03 08:55:44;;;;;;;8.50;6.07;;;;;;;;;;2096252;28;20048;-71
2022/06/03 08:57:07;;;;;;;6.80;6.20;;;;;;;;;;2095620;28;20071;-71
2022/06/03 08:58:35;;;;;;;6.65;6.10;;;;;;;;;;2096138;28;20475;-69
2022/06/03 09:00:02;;;;;;;7.18;6.45;;;;;;;;;;2095897;28;20045;-70
2022/06/03 09:01:21;;;;;;;6.07;5.43;;;;;;;;;;2097003;28;20067;-71
2022/06/03 09:03:06;;;;;;;6.85;6.05;;;;;;;;;;2090897;28;20483;-71
2022/06/03 09:04:30;;;;;;;7.30;5.60;;;;;;;;;;2091124;28;20029;-71
2022/06/03 09:05:52;;;;;;;9.48;5.68;;;;;;;;;;2095494;28;20029;-72
2022/06/03 09:07:17;;;;;;;9.00;6.07;;;;;;;;;;2096666;28;20402;-72